sensor_id;sensor_type;location;lat;lon;timestamp;pressure;altitude;pressure_sealevel;temperature;humidity
49072;BME280;74284;52.610;10.236;2024-01-30T00:00:40;102402.72;;;1.86;70.23
49072;BME280;74284;52.610;10.236;2024-01-30T00:03:06;102411.56;;;1.91;70.19
49072;BME280;74284;52.610;10.236;2024-01-30T00:05:31;102397.88;;;2.05;70.83
49072;BME280;74284;52.610;10.236;2024-01-30T00:07:57;102402.09;;;1.99;69.35
49072;BME280;74284;52.610;10.236;2024-01-30T00:10:22;102396.03;;;2.00;68.91
49072;BME280;74284;52.610;10.236;2024-01-30T00:12:47;102396.84;;;1.99;68.78
49072;BME280;74284;52.610;10.236;2024-01-30T00:15:13;102396.84;;;1.97;68.61
49072;BME280;74284;52.610;10.236;2024-01-30T00:17:38;102391.59;;;1.96;68.79
49072;BME280;74284;52.610;10.236;2024-01-30T00:20:04;102390.63;;;1.91;68.90
49072;BME280;74284;52.610;10.236;2024-01-30T00:22:34;102403.59;;;1.84;69.05
49072;BME280;74284;52.610;10.236;2024-01-30T00:25:00;102393.81;;;1.74;69.32
49072;BME280;74284;52.610;10.236;2024-01-30T00:27:25;102403.34;;;1.72;69.64
49072;BME280;74284;52.610;10.236;2024-01-30T00:29:51;102392.84;;;1.69;69.88
49072;BME280;74284;52.610;10.236;2024-01-30T00:32:16;102395.56;;;1.75;69.59
49072;BME280;74284;52.610;10.236;2024-01-30T00:34:44;102396.50;;;1.79;69.00
49072;BME280;74284;52.610;10.236;2024-01-30T00:37:09;102402.59;;;1.78;69.18
49072;BME280;74284;52.610;10.236;2024-01-30T00:39:34;102394.78;;;1.81;69.21
49072;BME280;74284;52.610;10.236;2024-01-30T00:42:00;102393.00;;;1.77;69.01
49072;BME280;74284;52.610;10.236;2024-01-30T00:44:25;102397.28;;;1.73;69.14
49072;BME280;74284;52.610;10.236;2024-01-30T00:46:50;102389.34;;;1.70;69.32
49072;BME280;74284;52.610;10.236;2024-01-30T00:49:16;102396.31;;;1.68;69.35
49072;BME280;74284;52.610;10.236;2024-01-30T00:51:41;102389.25;;;1.64;69.68
49072;BME280;74284;52.610;10.236;2024-01-30T00:54:06;102386.66;;;1.66;69.63
49072;BME280;74284;52.610;10.236;2024-01-30T00:56:32;102390.13;;;1.65;69.64
49072;BME280;74284;52.610;10.236;2024-01-30T00:58:57;102381.41;;;1.66;69.37
49072;BME280;74284;52.610;10.236;2024-01-30T01:01:22;102382.09;;;1.55;70.04
49072;BME280;74284;52.610;10.236;2024-01-30T01:03:48;102391.63;;;1.53;70.09
49072;BME280;74284;52.610;10.236;2024-01-30T01:06:13;102382.97;;;1.54;70.22
49072;BME280;74284;52.610;10.236;2024-01-30T01:08:39;102390.81;;;1.54;69.85
49072;BME280;74284;52.610;10.236;2024-01-30T01:11:04;102392.50;;;1.52;69.82
49072;BME280;74284;52.610;10.236;2024-01-30T01:13:29;102395.78;;;1.42;70.33
49072;BME280;74284;52.610;10.236;2024-01-30T01:15:55;102396.78;;;1.49;70.53
49072;BME280;74284;52.610;10.236;2024-01-30T01:18:20;102396.13;;;1.59;70.00
49072;BME280;74284;52.610;10.236;2024-01-30T01:20:45;102397.81;;;1.55;69.94
49072;BME280;74284;52.610;10.236;2024-01-30T01:23:11;102394.13;;;1.46;71.37
49072;BME280;74284;52.610;10.236;2024-01-30T01:25:36;102388.91;;;1.46;70.33
49072;BME280;74284;52.610;10.236;2024-01-30T01:28:01;102390.81;;;1.54;70.06
49072;BME280;74284;52.610;10.236;2024-01-30T01:30:27;102393.38;;;1.53;70.03
49072;BME280;74284;52.610;10.236;2024-01-30T01:32:54;102391.47;;;1.44;70.13
49072;BME280;74284;52.610;10.236;2024-01-30T01:35:25;102387.28;;;1.52;70.21
49072;BME280;74284;52.610;10.236;2024-01-30T01:37:51;102386.47;;;1.55;69.86
49072;BME280;74284;52.610;10.236;2024-01-30T01:40:22;102383.94;;;1.60;69.63
49072;BME280;74284;52.610;10.236;2024-01-30T01:42:49;102386.59;;;1.63;70.13
49072;BME280;74284;52.610;10.236;2024-01-30T01:45:15;102390.06;;;1.63;70.00
49072;BME280;74284;52.610;10.236;2024-01-30T01:47:41;102388.31;;;1.61;69.95
49072;BME280;74284;52.610;10.236;2024-01-30T01:50:07;102384.75;;;1.58;70.11
49072;BME280;74284;52.610;10.236;2024-01-30T01:52:33;102382.06;;;1.54;69.89
49072;BME280;74284;52.610;10.236;2024-01-30T01:54:59;102383.06;;;1.61;71.37
49072;BME280;74284;52.610;10.236;2024-01-30T01:57:24;102377.59;;;1.48;70.55
49072;BME280;74284;52.610;10.236;2024-01-30T01:59:50;102377.56;;;1.45;70.76
49072;BME280;74284;52.610;10.236;2024-01-30T02:02:17;102378.34;;;1.43;70.76
49072;BME280;74284;52.610;10.236;2024-01-30T02:04:45;102377.56;;;1.45;70.75
49072;BME280;74284;52.610;10.236;2024-01-30T02:07:10;102371.47;;;1.46;70.86
49072;BME280;74284;52.610;10.236;2024-01-30T02:09:36;102368.06;;;1.52;70.69
49072;BME280;74284;52.610;10.236;2024-01-30T02:12:01;102365.34;;;1.46;70.87
49072;BME280;74284;52.610;10.236;2024-01-30T02:14:26;102365.31;;;1.44;71.16
49072;BME280;74284;52.610;10.236;2024-01-30T02:16:52;102359.19;;;1.42;71.21
49072;BME280;74284;52.610;10.236;2024-01-30T02:19:17;102353.88;;;1.39;72.29
49072;BME280;74284;52.610;10.236;2024-01-30T02:21:43;102360.06;;;1.43;72.29
49072;BME280;74284;52.610;10.236;2024-01-30T02:24:08;102354.88;;;1.46;71.58
49072;BME280;74284;52.610;10.236;2024-01-30T02:26:34;102352.28;;;1.46;71.83
49072;BME280;74284;52.610;10.236;2024-01-30T02:28:59;102354.84;;;1.44;71.56
49072;BME280;74284;52.610;10.236;2024-01-30T02:31:25;102347.88;;;1.45;71.54
49072;BME280;74284;52.610;10.236;2024-01-30T02:33:51;102341.56;;;1.33;72.75
49072;BME280;74284;52.610;10.236;2024-01-30T02:36:16;102351.44;;;1.48;72.18
49072;BME280;74284;52.610;10.236;2024-01-30T02:38:41;102337.59;;;1.54;71.91
49072;BME280;74284;52.610;10.236;2024-01-30T02:41:07;102336.97;;;1.67;71.40
49072;BME280;74284;52.610;10.236;2024-01-30T02:43:32;102337.56;;;1.52;72.24
49072;BME280;74284;52.610;10.236;2024-01-30T02:45:57;102339.41;;;1.58;71.84
49072;BME280;74284;52.610;10.236;2024-01-30T02:48:24;102326.88;;;1.40;73.41
49072;BME280;74284;52.610;10.236;2024-01-30T02:50:50;102330.50;;;1.47;73.14
49072;BME280;74284;52.610;10.236;2024-01-30T02:53:15;102329.66;;;1.49;73.41
49072;BME280;74284;52.610;10.236;2024-01-30T02:55:40;102324.47;;;1.51;72.73
49072;BME280;74284;52.610;10.236;2024-01-30T02:58:06;102318.31;;;1.49;72.58
49072;BME280;74284;52.610;10.236;2024-01-30T03:00:31;102314.97;;;1.56;72.37
49072;BME280;74284;52.610;10.236;2024-01-30T03:02:57;102310.63;;;1.56;72.71
49072;BME280;74284;52.610;10.236;2024-01-30T03:05:22;102312.34;;;1.56;72.63
49072;BME280;74284;52.610;10.236;2024-01-30T03:07:47;102313.16;;;1.52;73.15
49072;BME280;74284;52.610;10.236;2024-01-30T03:10:13;102315.84;;;1.55;72.80
49072;BME280;74284;52.610;10.236;2024-01-30T03:12:38;102314.97;;;1.56;72.92
49072;BME280;74284;52.610;10.236;2024-01-30T03:15:04;102316.78;;;1.60;72.31
49072;BME280;74284;52.610;10.236;2024-01-30T03:17:29;102314.25;;;1.65;72.25
49072;BME280;74284;52.610;10.236;2024-01-30T03:19:54;102316.97;;;1.71;72.31
49072;BME280;74284;52.610;10.236;2024-01-30T03:22:19;102309.09;;;1.69;72.12
49072;BME280;74284;52.610;10.236;2024-01-30T03:24:45;102309.25;;;1.77;72.16
49072;BME280;74284;52.610;10.236;2024-01-30T03:27:10;102306.63;;;1.77;73.21
49072;BME280;74284;52.610;10.236;2024-01-30T03:29:35;102309.22;;;1.75;73.21
49072;BME280;74284;52.610;10.236;2024-01-30T03:32:01;102302.13;;;1.68;73.74
49072;BME280;74284;52.610;10.236;2024-01-30T03:34:26;102301.09;;;1.60;74.31
49072;BME280;74284;52.610;10.236;2024-01-30T03:36:52;102296.91;;;1.71;73.82
49072;BME280;74284;52.610;10.236;2024-01-30T03:39:17;102297.00;;;1.76;73.25
49072;BME280;74284;52.610;10.236;2024-01-30T03:41:42;102297.88;;;1.76;73.14
49072;BME280;74284;52.610;10.236;2024-01-30T03:44:09;102297.88;;;1.75;72.92
49072;BME280;74284;52.610;10.236;2024-01-30T03:46:34;102290.03;;;1.76;73.01
49072;BME280;74284;52.610;10.236;2024-01-30T03:49:00;102287.41;;;1.75;72.87
49072;BME280;74284;52.610;10.236;2024-01-30T03:51:25;102298.81;;;1.80;73.21
49072;BME280;74284;52.610;10.236;2024-01-30T03:53:50;102296.09;;;1.74;73.52
49072;BME280;74284;52.610;10.236;2024-01-30T03:56:16;102296.13;;;1.75;72.99
49072;BME280;74284;52.610;10.236;2024-01-30T03:58:41;102297.03;;;1.77;73.04
49072;BME280;74284;52.610;10.236;2024-01-30T04:01:07;102290.00;;;1.75;73.26
49072;BME280;74284;52.610;10.236;2024-01-30T04:03:32;102291.75;;;1.74;73.03
49072;BME280;74284;52.610;10.236;2024-01-30T04:05:58;102292.69;;;1.78;73.57
49072;BME280;74284;52.610;10.236;2024-01-30T04:08:23;102293.97;;;1.51;76.00
49072;BME280;74284;52.610;10.236;2024-01-30T04:10:48;102302.44;;;1.40;76.92
49072;BME280;74284;52.610;10.236;2024-01-30T04:13:14;102299.00;;;1.41;78.03
49072;BME280;74284;52.610;10.236;2024-01-30T04:15:39;102304.44;;;1.53;77.17
49072;BME280;74284;52.610;10.236;2024-01-30T04:18:05;102304.59;;;1.62;75.44
49072;BME280;74284;52.610;10.236;2024-01-30T04:20:30;102301.97;;;1.59;74.55
49072;BME280;74284;52.610;10.236;2024-01-30T04:22:55;102299.38;;;1.62;74.47
49072;BME280;74284;52.610;10.236;2024-01-30T04:25:21;102299.44;;;1.64;74.61
49072;BME280;74284;52.610;10.236;2024-01-30T04:27:46;102289.94;;;1.70;74.19
49072;BME280;74284;52.610;10.236;2024-01-30T04:30:12;102289.00;;;1.67;74.08
49072;BME280;74284;52.610;10.236;2024-01-30T04:32:37;102295.06;;;1.64;73.79
49072;BME280;74284;52.610;10.236;2024-01-30T04:35:03;102292.38;;;1.61;74.23
49072;BME280;74284;52.610;10.236;2024-01-30T04:37:29;102292.25;;;1.53;74.94
49072;BME280;74284;52.610;10.236;2024-01-30T04:39:54;102293.00;;;1.48;74.88
49072;BME280;74284;52.610;10.236;2024-01-30T04:42:19;102293.97;;;1.51;74.41
49072;BME280;74284;52.610;10.236;2024-01-30T04:44:45;102292.25;;;1.53;73.95
49072;BME280;74284;52.610;10.236;2024-01-30T04:47:10;102291.25;;;1.47;73.79
49072;BME280;74284;52.610;10.236;2024-01-30T04:49:38;102292.94;;;1.45;73.74
49072;BME280;74284;52.610;10.236;2024-01-30T04:52:04;102289.28;;;1.33;74.33
49072;BME280;74284;52.610;10.236;2024-01-30T04:54:29;102286.59;;;1.30;75.03
49072;BME280;74284;52.610;10.236;2024-01-30T04:56:55;102284.75;;;1.25;76.25
49072;BME280;74284;52.610;10.236;2024-01-30T04:59:20;102276.13;;;1.30;74.89
49072;BME280;74284;52.610;10.236;2024-01-30T05:01:45;102278.78;;;1.32;74.64
49072;BME280;74284;52.610;10.236;2024-01-30T05:04:11;102281.69;;;1.49;73.41
49072;BME280;74284;52.610;10.236;2024-01-30T05:06:36;102277.41;;;1.52;72.77
49072;BME280;74284;52.610;10.236;2024-01-30T05:09:02;102285.16;;;1.46;72.77
49072;BME280;74284;52.610;10.236;2024-01-30T05:11:30;102283.41;;;1.45;72.75
49072;BME280;74284;52.610;10.236;2024-01-30T05:13:55;102287.81;;;1.49;72.54
49072;BME280;74284;52.610;10.236;2024-01-30T05:16:20;102289.53;;;1.47;72.46
49072;BME280;74284;52.610;10.236;2024-01-30T05:18:45;102291.19;;;1.44;72.27
49072;BME280;74284;52.610;10.236;2024-01-30T05:21:11;102288.47;;;1.36;72.51
49072;BME280;74284;52.610;10.236;2024-01-30T05:23:36;102292.78;;;1.36;72.45
49072;BME280;74284;52.610;10.236;2024-01-30T05:26:02;102284.09;;;1.37;72.33
49072;BME280;74284;52.610;10.236;2024-01-30T05:28:29;102291.78;;;1.27;72.81
49072;BME280;74284;52.610;10.236;2024-01-30T05:30:54;102285.78;;;1.33;72.20
49072;BME280;74284;52.610;10.236;2024-01-30T05:33:20;102288.50;;;1.39;72.03
49072;BME280;74284;52.610;10.236;2024-01-30T05:35:45;102281.50;;;1.38;72.03
49072;BME280;74284;52.610;10.236;2024-01-30T05:38:11;102289.94;;;1.23;71.99
49072;BME280;74284;52.610;10.236;2024-01-30T05:40:36;102277.78;;;1.27;72.29
49072;BME280;74284;52.610;10.236;2024-01-30T05:43:01;102289.19;;;1.29;71.84
49072;BME280;74284;52.610;10.236;2024-01-30T05:45:27;102282.19;;;1.28;71.86
49072;BME280;74284;52.610;10.236;2024-01-30T05:47:53;102286.66;;;1.33;71.37
49072;BME280;74284;52.610;10.236;2024-01-30T05:50:21;102285.50;;;1.19;71.83
49072;BME280;74284;52.610;10.236;2024-01-30T05:52:48;102286.47;;;1.23;71.86
49072;BME280;74284;52.610;10.236;2024-01-30T05:55:14;102287.34;;;1.25;71.68
49072;BME280;74284;52.610;10.236;2024-01-30T05:57:39;102287.28;;;1.22;71.95
49072;BME280;74284;52.610;10.236;2024-01-30T06:00:05;102281.94;;;1.16;71.99
49072;BME280;74284;52.610;10.236;2024-01-30T06:02:31;102282.03;;;1.20;71.85
49072;BME280;74284;52.610;10.236;2024-01-30T06:04:56;102283.69;;;1.15;71.84
49072;BME280;74284;52.610;10.236;2024-01-30T06:07:21;102281.06;;;1.15;71.79
49072;BME280;74284;52.610;10.236;2024-01-30T06:09:47;102279.31;;;1.14;71.75
49072;BME280;74284;52.610;10.236;2024-01-30T06:12:12;102266.28;;;1.16;71.66
49072;BME280;74284;52.610;10.236;2024-01-30T06:14:38;102264.44;;;1.10;71.72
49072;BME280;74284;52.610;10.236;2024-01-30T06:17:03;102268.63;;;1.03;72.07
49072;BME280;74284;52.610;10.236;2024-01-30T06:19:30;102265.19;;;1.04;72.11
49072;BME280;74284;52.610;10.236;2024-01-30T06:21:55;102267.91;;;1.09;71.34
49072;BME280;74284;52.610;10.236;2024-01-30T06:24:20;102265.31;;;1.11;71.53
49072;BME280;74284;52.610;10.236;2024-01-30T06:26:45;102267.66;;;0.97;71.86
49072;BME280;74284;52.610;10.236;2024-01-30T06:29:11;102266.94;;;1.05;71.78
49072;BME280;74284;52.610;10.236;2024-01-30T06:31:42;102268.63;;;1.03;72.02
49072;BME280;74284;52.610;10.236;2024-01-30T06:34:10;102266.06;;;1.05;71.73
49072;BME280;74284;52.610;10.236;2024-01-30T06:36:37;102261.81;;;1.10;71.40
49072;BME280;74284;52.610;10.236;2024-01-30T06:39:03;102263.53;;;1.10;71.82
49072;BME280;74284;52.610;10.236;2024-01-30T06:41:29;102258.25;;;1.06;71.85
49072;BME280;74284;52.610;10.236;2024-01-30T06:43:55;102260.94;;;1.10;71.71
49072;BME280;74284;52.610;10.236;2024-01-30T06:46:20;102253.03;;;1.06;71.91
49072;BME280;74284;52.610;10.236;2024-01-30T06:48:45;102259.03;;;1.01;72.46
49072;BME280;74284;52.610;10.236;2024-01-30T06:51:11;102261.44;;;0.92;73.02
49072;BME280;74284;52.610;10.236;2024-01-30T06:53:37;102261.44;;;0.92;72.87
49072;BME280;74284;52.610;10.236;2024-01-30T06:56:03;102255.38;;;0.93;73.01
49072;BME280;74284;52.610;10.236;2024-01-30T06:58:28;102258.94;;;0.98;72.29
49072;BME280;74284;52.610;10.236;2024-01-30T07:00:54;102252.84;;;0.97;72.75
49072;BME280;74284;52.610;10.236;2024-01-30T07:03:19;102251.94;;;0.95;72.57
49072;BME280;74284;52.610;10.236;2024-01-30T07:05:45;102248.38;;;0.92;72.64
49072;BME280;74284;52.610;10.236;2024-01-30T07:08:10;102249.25;;;0.91;72.62
49072;BME280;74284;52.610;10.236;2024-01-30T07:10:35;102253.63;;;0.93;72.26
49072;BME280;74284;52.610;10.236;2024-01-30T07:13:01;102255.44;;;0.96;72.32
49072;BME280;74284;52.610;10.236;2024-01-30T07:15:26;102259.91;;;1.03;71.96
49072;BME280;74284;52.610;10.236;2024-01-30T07:17:51;102262.56;;;1.04;71.94
49072;BME280;74284;52.610;10.236;2024-01-30T07:20:17;102256.50;;;1.05;72.09
49072;BME280;74284;52.610;10.236;2024-01-30T07:22:45;102255.53;;;1.02;71.92
49072;BME280;74284;52.610;10.236;2024-01-30T07:25:10;102256.50;;;1.05;71.95
49072;BME280;74284;52.610;10.236;2024-01-30T07:27:36;102257.44;;;1.09;71.80
49072;BME280;74284;52.610;10.236;2024-01-30T07:30:01;102260.94;;;1.11;72.31
49072;BME280;74284;52.610;10.236;2024-01-30T07:32:27;102262.78;;;1.17;71.84
49072;BME280;74284;52.610;10.236;2024-01-30T07:34:52;102260.25;;;1.20;71.83
49072;BME280;74284;52.610;10.236;2024-01-30T07:37:17;102255.88;;;1.19;71.66
49072;BME280;74284;52.610;10.236;2024-01-30T07:39:43;102260.31;;;1.23;71.87
49072;BME280;74284;52.610;10.236;2024-01-30T07:42:08;102256.78;;;1.22;72.01
49072;BME280;74284;52.610;10.236;2024-01-30T07:44:33;102255.81;;;1.16;72.71
49072;BME280;74284;52.610;10.236;2024-01-30T07:46:59;102248.13;;;1.23;72.75
49072;BME280;74284;52.610;10.236;2024-01-30T07:49:24;102248.03;;;1.19;72.95
49072;BME280;74284;52.610;10.236;2024-01-30T07:51:50;102248.25;;;1.31;72.49
49072;BME280;74284;52.610;10.236;2024-01-30T07:54:15;102254.56;;;1.42;72.37
49072;BME280;74284;52.610;10.236;2024-01-30T07:56:41;102245.06;;;1.49;72.44
49072;BME280;74284;52.610;10.236;2024-01-30T07:59:10;102251.25;;;1.52;73.11
49072;BME280;74284;52.610;10.236;2024-01-30T08:01:35;102251.41;;;1.60;72.49
49072;BME280;74284;52.610;10.236;2024-01-30T08:04:00;102251.25;;;1.52;73.45
49072;BME280;74284;52.610;10.236;2024-01-30T08:06:25;102249.63;;;1.59;73.97
49072;BME280;74284;52.610;10.236;2024-01-30T08:08:52;102252.19;;;1.56;74.18
49072;BME280;74284;52.610;10.236;2024-01-30T08:11:20;102253.44;;;1.78;73.32
49072;BME280;74284;52.610;10.236;2024-01-30T08:13:45;102256.22;;;1.90;73.43
49072;BME280;74284;52.610;10.236;2024-01-30T08:16:10;102252.00;;;1.98;73.60
49072;BME280;74284;52.610;10.236;2024-01-30T08:18:36;102257.38;;;2.07;73.25
49072;BME280;74284;52.610;10.236;2024-01-30T08:21:01;102251.41;;;2.15;73.51
49072;BME280;74284;52.610;10.236;2024-01-30T08:23:26;102248.91;;;2.24;73.57
49072;BME280;74284;52.610;10.236;2024-01-30T08:25:52;102251.63;;;2.30;73.56
49072;BME280;74284;52.610;10.236;2024-01-30T08:28:17;102252.41;;;2.24;74.02
49072;BME280;74284;52.610;10.236;2024-01-30T08:30:42;102243.66;;;2.22;76.09
49072;BME280;74284;52.610;10.236;2024-01-30T08:33:08;102249.94;;;2.33;76.02
49072;BME280;74284;52.610;10.236;2024-01-30T08:35:33;102246.63;;;2.48;76.79
49072;BME280;74284;52.610;10.236;2024-01-30T08:37:59;102231.94;;;2.59;77.15
49072;BME280;74284;52.610;10.236;2024-01-30T08:40:24;102228.97;;;3.00;81.18
49072;BME280;74284;52.610;10.236;2024-01-30T08:42:50;102232.47;;;3.01;76.58
49072;BME280;74284;52.610;10.236;2024-01-30T08:45:15;102222.09;;;3.13;75.64
49072;BME280;74284;52.610;10.236;2024-01-30T08:47:40;102223.06;;;3.21;76.72
49072;BME280;74284;52.610;10.236;2024-01-30T08:50:06;102229.34;;;3.37;76.73
49072;BME280;74284;52.610;10.236;2024-01-30T08:52:32;102220.75;;;3.52;76.80
49072;BME280;74284;52.610;10.236;2024-01-30T08:54:59;102222.59;;;3.65;76.87
49072;BME280;74284;52.610;10.236;2024-01-30T08:57:24;102219.25;;;3.81;77.47
49072;BME280;74284;52.610;10.236;2024-01-30T08:59:53;102215.84;;;3.98;76.79
49072;BME280;74284;52.610;10.236;2024-01-30T09:02:18;102222.09;;;4.14;77.54
49072;BME280;74284;52.610;10.236;2024-01-30T09:04:44;102206.41;;;4.29;77.25
49072;BME280;74284;52.610;10.236;2024-01-30T09:07:09;102212.63;;;4.45;77.27
49072;BME280;74284;52.610;10.236;2024-01-30T09:09:35;102211.81;;;4.58;77.13
49072;BME280;74284;52.610;10.236;2024-01-30T09:12:00;102218.03;;;4.72;77.13
49072;BME280;74284;52.610;10.236;2024-01-30T09:14:32;102214.53;;;4.79;77.16
49072;BME280;74284;52.610;10.236;2024-01-30T09:16:57;102218.97;;;4.91;77.38
49072;BME280;74284;52.610;10.236;2024-01-30T09:19:22;102222.50;;;5.07;77.13
49072;BME280;74284;52.610;10.236;2024-01-30T09:21:47;102224.28;;;5.19;77.05
49072;BME280;74284;52.610;10.236;2024-01-30T09:24:13;102225.16;;;5.30;76.92
49072;BME280;74284;52.610;10.236;2024-01-30T09:26:38;102230.50;;;5.50;76.62
49072;BME280;74284;52.610;10.236;2024-01-30T09:29:03;102221.75;;;5.58;77.07
49072;BME280;74284;52.610;10.236;2024-01-30T09:31:29;102218.22;;;5.70;77.11
49072;BME280;74284;52.610;10.236;2024-01-30T09:33:54;102223.47;;;5.85;76.41
49072;BME280;74284;52.610;10.236;2024-01-30T09:36:20;102220.81;;;5.99;75.89
49072;BME280;74284;52.610;10.236;2024-01-30T09:38:45;102221.72;;;6.06;75.78
49072;BME280;74284;52.610;10.236;2024-01-30T09:41:11;102215.53;;;6.21;75.79
49072;BME280;74284;52.610;10.236;2024-01-30T09:43:38;102219.06;;;6.18;75.95
49072;BME280;74284;52.610;10.236;2024-01-30T09:46:05;102219.91;;;6.29;75.77
49072;BME280;74284;52.610;10.236;2024-01-30T09:48:32;102220.72;;;6.44;75.50
49072;BME280;74284;52.610;10.236;2024-01-30T09:50:57;102222.47;;;6.52;75.39
49072;BME280;74284;52.610;10.236;2024-01-30T09:53:24;102217.13;;;6.66;75.04
49072;BME280;74284;52.610;10.236;2024-01-30T09:55:50;102210.94;;;6.75;75.13
49072;BME280;74284;52.610;10.236;2024-01-30T09:58:16;102208.25;;;6.85;74.71
49072;BME280;74284;52.610;10.236;2024-01-30T10:00:41;102216.09;;;7.01;74.48
49072;BME280;74284;52.610;10.236;2024-01-30T10:03:07;102203.59;;;7.33;74.38
49072;BME280;74284;52.610;10.236;2024-01-30T10:05:35;102200.16;;;7.19;73.79
49072;BME280;74284;52.610;10.236;2024-01-30T10:08:05;102204.50;;;7.26;73.65
49072;BME280;74284;52.610;10.236;2024-01-30T10:10:31;102208.91;;;7.32;74.05
49072;BME280;74284;52.610;10.236;2024-01-30T10:12:56;102194.66;;;7.54;72.96
49072;BME280;74284;52.610;10.236;2024-01-30T10:15:21;102203.38;;;7.61;72.71
49072;BME280;74284;52.610;10.236;2024-01-30T10:17:47;102190.88;;;7.80;72.37
49072;BME280;74284;52.610;10.236;2024-01-30T10:20:13;102187.41;;;7.75;72.38
49072;BME280;74284;52.610;10.236;2024-01-30T10:22:40;102198.84;;;7.78;72.54
49072;BME280;74284;52.610;10.236;2024-01-30T10:25:07;102191.63;;;7.94;72.33
49072;BME280;74284;52.610;10.236;2024-01-30T10:27:33;102192.56;;;7.88;72.86
49072;BME280;74284;52.610;10.236;2024-01-30T10:29:58;102190.56;;;8.12;71.80
49072;BME280;74284;52.610;10.236;2024-01-30T10:32:23;102188.53;;;8.37;70.84
49072;BME280;74284;52.610;10.236;2024-01-30T10:34:49;102187.69;;;8.33;70.50
49072;BME280;74284;52.610;10.236;2024-01-30T10:37:15;102179.53;;;8.52;70.32
49072;BME280;74284;52.610;10.236;2024-01-30T10:39:42;102176.84;;;8.56;69.88
49072;BME280;74284;52.610;10.236;2024-01-30T10:42:13;102174.94;;;8.66;69.77
49072;BME280;74284;52.610;10.236;2024-01-30T10:47:30;102172.00;;;8.89;68.36
49072;BME280;74284;52.610;10.236;2024-01-30T10:49:56;102172.09;;;8.83;68.92
49072;BME280;74284;52.610;10.236;2024-01-30T10:52:25;102167.53;;;8.96;67.87
49072;BME280;74284;52.610;10.236;2024-01-30T10:54:51;102165.66;;;9.02;68.23
49072;BME280;74284;52.610;10.236;2024-01-30T10:57:17;102162.25;;;8.92;68.67
49072;BME280;74284;52.610;10.236;2024-01-30T10:59:44;102167.50;;;8.97;68.00
49072;BME280;74284;52.610;10.236;2024-01-30T11:02:11;102169.31;;;8.93;68.43
49072;BME280;74284;52.610;10.236;2024-01-30T11:04:37;102162.94;;;9.08;67.99
49072;BME280;74284;52.610;10.236;2024-01-30T11:07:14;102165.47;;;9.14;67.61
49072;BME280;74284;52.610;10.236;2024-01-30T11:09:40;102151.25;;;9.20;67.88
49072;BME280;74284;52.610;10.236;2024-01-30T11:12:12;102159.13;;;9.25;66.81
49072;BME280;74284;52.610;10.236;2024-01-30T11:14:37;102164.44;;;9.25;66.88
49072;BME280;74284;52.610;10.236;2024-01-30T11:17:05;102157.91;;;9.46;66.55
49072;BME280;74284;52.610;10.236;2024-01-30T11:19:31;102156.91;;;9.53;66.08
49072;BME280;74284;52.610;10.236;2024-01-30T11:21:57;102155.06;;;9.56;65.36
49072;BME280;74284;52.610;10.236;2024-01-30T11:24:23;102154.91;;;9.65;65.13
49072;BME280;74284;52.610;10.236;2024-01-30T11:26:49;102159.69;;;9.43;65.69
49072;BME280;74284;52.610;10.236;2024-01-30T11:29:18;102153.13;;;9.66;65.66
49072;BME280;74284;52.610;10.236;2024-01-30T11:31:54;102154.88;;;9.67;64.80
49072;BME280;74284;52.610;10.236;2024-01-30T11:34:21;102150.94;;;9.91;64.87
49072;BME280;74284;52.610;10.236;2024-01-30T11:36:51;102143.97;;;9.84;64.05
49072;BME280;74284;52.610;10.236;2024-01-30T11:39:24;102134.59;;;9.66;64.99
49072;BME280;74284;52.610;10.236;2024-01-30T11:41:51;102136.91;;;9.86;64.42
49072;BME280;74284;52.610;10.236;2024-01-30T11:44:16;102138.81;;;9.76;64.34
49072;BME280;74284;52.610;10.236;2024-01-30T11:46:42;102145.19;;;9.67;64.67
49072;BME280;74284;52.610;10.236;2024-01-30T11:49:07;102142.13;;;9.89;64.10
49072;BME280;74284;52.610;10.236;2024-01-30T11:51:32;102140.25;;;9.95;63.59
49072;BME280;74284;52.610;10.236;2024-01-30T11:53:58;102145.69;;;9.88;63.45
49072;BME280;74284;52.610;10.236;2024-01-30T11:56:24;102141.25;;;9.88;63.22
49072;BME280;74284;52.610;10.236;2024-01-30T11:58:49;102147.31;;;9.95;63.10
49072;BME280;74284;52.610;10.236;2024-01-30T12:01:16;102149.31;;;9.81;62.61
49072;BME280;74284;52.610;10.236;2024-01-30T12:03:42;102146.38;;;9.98;63.17
49072;BME280;74284;52.610;10.236;2024-01-30T12:06:07;102145.22;;;10.11;62.57
49072;BME280;74284;52.610;10.236;2024-01-30T12:08:33;102134.69;;;10.08;62.67
49072;BME280;74284;52.610;10.236;2024-01-30T12:10:58;102145.19;;;10.12;62.40
49072;BME280;74284;52.610;10.236;2024-01-30T12:13:26;102136.34;;;10.13;62.68
49072;BME280;74284;52.610;10.236;2024-01-30T12:15:51;102135.44;;;10.14;62.36
49072;BME280;74284;52.610;10.236;2024-01-30T12:18:20;102134.44;;;10.20;61.89
49072;BME280;74284;52.610;10.236;2024-01-30T12:20:45;102129.28;;;10.12;62.61
49072;BME280;74284;52.610;10.236;2024-01-30T12:23:12;102119.28;;;10.28;62.05
49072;BME280;74284;52.610;10.236;2024-01-30T12:25:37;102121.69;;;10.39;61.48
49072;BME280;74284;52.610;10.236;2024-01-30T12:28:03;102126.19;;;10.37;61.76
49072;BME280;74284;52.610;10.236;2024-01-30T12:30:29;102112.75;;;10.44;61.53
49072;BME280;74284;52.610;10.236;2024-01-30T12:32:55;102110.94;;;10.47;60.80
49072;BME280;74284;52.610;10.236;2024-01-30T12:35:20;102109.81;;;10.57;61.13
49072;BME280;74284;52.610;10.236;2024-01-30T12:37:47;102122.16;;;10.59;61.01
49072;BME280;74284;52.610;10.236;2024-01-30T12:40:14;102113.88;;;10.73;60.63
49072;BME280;74284;52.610;10.236;2024-01-30T12:42:40;102118.38;;;10.69;60.89
49072;BME280;74284;52.610;10.236;2024-01-30T12:45:08;102122.03;;;11.03;60.05